sensor_id;sensor_type;location;lat;lon;timestamp;P1;durP1;ratioP1;P2;durP2;ratioP2
43905;SDS011;29564;46.622;13.818;2024-01-07T00:00:57;4.93;;;2.53;;
43905;SDS011;29564;46.622;13.818;2024-01-07T00:01:58;3.83;;;2.08;;
43905;SDS011;29564;46.622;13.818;2024-01-07T00:02:59;3.58;;;1.90;;
43905;SDS011;29564;46.622;13.818;2024-01-07T00:04:01;3.67;;;2.28;;
43905;SDS011;29564;46.622;13.818;2024-01-07T00:05:02;4.82;;;2.03;;
43905;SDS011;29564;46.622;13.818;2024-01-07T00:06:04;5.28;;;2.50;;
43905;SDS011;29564;46.622;13.818;2024-01-07T00:07:05;7.97;;;1.83;;
43905;SDS011;29564;46.622;13.818;2024-01-07T00:08:06;8.63;;;2.50;;
43905;SDS011;29564;46.622;13.818;2024-01-07T00:09:07;10.43;;;2.60;;
43905;SDS011;29564;46.622;13.818;2024-01-07T00:10:09;7.65;;;2.53;;
43905;SDS011;29564;46.622;13.818;2024-01-07T00:11:10;4.40;;;1.70;;
43905;SDS011;29564;46.622;13.818;2024-01-07T00:12:11;3.88;;;1.83;;
43905;SDS011;29564;46.622;13.818;2024-01-07T00:13:13;3.50;;;1.67;;
43905;SDS011;29564;46.622;13.818;2024-01-07T00:14:15;4.20;;;1.60;;
43905;SDS011;29564;46.622;13.818;2024-01-07T00:15:17;3.20;;;1.83;;
43905;SDS011;29564;46.622;13.818;2024-01-07T00:16:18;5.00;;;2.25;;
43905;SDS011;29564;46.622;13.818;2024-01-07T00:17:20;5.93;;;2.60;;
43905;SDS011;29564;46.622;13.818;2024-01-07T00:18:21;6.30;;;2.53;;
43905;SDS011;29564;46.622;13.818;2024-01-07T00:19:22;6.22;;;2.45;;
43905;SDS011;29564;46.622;13.818;2024-01-07T00:20:24;4.00;;;2.05;;
43905;SDS011;29564;46.622;13.818;2024-01-07T00:21:25;4.28;;;2.13;;
43905;SDS011;29564;46.622;13.818;2024-01-07T00:22:26;4.28;;;2.22;;
43905;SDS011;29564;46.622;13.818;2024-01-07T00:23:28;4.18;;;1.95;;
43905;SDS011;29564;46.622;13.818;2024-01-07T00:24:29;4.32;;;2.63;;
43905;SDS011;29564;46.622;13.818;2024-01-07T00:25:30;6.38;;;2.67;;
43905;SDS011;29564;46.622;13.818;2024-01-07T00:26:32;4.32;;;2.40;;
43905;SDS011;29564;46.622;13.818;2024-01-07T00:27:33;5.18;;;2.10;;
43905;SDS011;29564;46.622;13.818;2024-01-07T00:28:34;4.72;;;2.63;;
43905;SDS011;29564;46.622;13.818;2024-01-07T00:29:37;6.78;;;2.15;;
43905;SDS011;29564;46.622;13.818;2024-01-07T00:30:38;5.80;;;3.03;;
43905;SDS011;29564;46.622;13.818;2024-01-07T00:31:39;4.13;;;2.05;;
43905;SDS011;29564;46.622;13.818;2024-01-07T00:32:40;3.60;;;1.67;;
43905;SDS011;29564;46.622;13.818;2024-01-07T00:33:42;3.50;;;1.70;;
43905;SDS011;29564;46.622;13.818;2024-01-07T00:34:43;2.85;;;1.92;;
43905;SDS011;29564;46.622;13.818;2024-01-07T00:35:45;5.32;;;2.20;;
43905;SDS011;29564;46.622;13.818;2024-01-07T00:36:46;5.25;;;2.40;;
43905;SDS011;29564;46.622;13.818;2024-01-07T00:37:48;6.45;;;2.78;;
43905;SDS011;29564;46.622;13.818;2024-01-07T00:38:49;3.65;;;2.38;;
43905;SDS011;29564;46.622;13.818;2024-01-07T00:39:50;5.75;;;2.92;;
43905;SDS011;29564;46.622;13.818;2024-01-07T00:40:52;8.10;;;2.97;;
43905;SDS011;29564;46.622;13.818;2024-01-07T00:41:53;6.60;;;2.58;;
43905;SDS011;29564;46.622;13.818;2024-01-07T00:42:54;4.85;;;2.53;;
43905;SDS011;29564;46.622;13.818;2024-01-07T00:43:55;6.57;;;3.13;;
43905;SDS011;29564;46.622;13.818;2024-01-07T00:44:57;8.13;;;3.05;;
43905;SDS011;29564;46.622;13.818;2024-01-07T00:45:58;4.63;;;2.35;;
43905;SDS011;29564;46.622;13.818;2024-01-07T00:46:59;5.22;;;2.17;;
43905;SDS011;29564;46.622;13.818;2024-01-07T00:48:00;6.95;;;2.70;;
43905;SDS011;29564;46.622;13.818;2024-01-07T00:49:02;8.43;;;2.55;;
43905;SDS011;29564;46.622;13.818;2024-01-07T00:50:03;5.43;;;2.75;;
43905;SDS011;29564;46.622;13.818;2024-01-07T00:51:05;7.03;;;2.53;;
43905;SDS011;29564;46.622;13.818;2024-01-07T00:52:06;6.43;;;3.33;;
43905;SDS011;29564;46.622;13.818;2024-01-07T00:53:07;6.45;;;2.15;;
43905;SDS011;29564;46.622;13.818;2024-01-07T00:54:09;7.05;;;3.33;;
43905;SDS011;29564;46.622;13.818;2024-01-07T00:55:10;6.13;;;3.05;;
43905;SDS011;29564;46.622;13.818;2024-01-07T00:56:11;9.13;;;3.10;;
43905;SDS011;29564;46.622;13.818;2024-01-07T00:57:12;5.47;;;2.65;;
43905;SDS011;29564;46.622;13.818;2024-01-07T00:58:14;9.68;;;3.58;;
43905;SDS011;29564;46.622;13.818;2024-01-07T00:59:15;7.93;;;3.22;;
43905;SDS011;29564;46.622;13.818;2024-01-07T01:00:17;7.65;;;2.90;;
43905;SDS011;29564;46.622;13.818;2024-01-07T01:01:18;4.57;;;2.67;;
43905;SDS011;29564;46.622;13.818;2024-01-07T01:02:20;6.65;;;2.67;;
43905;SDS011;29564;46.622;13.818;2024-01-07T01:03:21;5.68;;;3.15;;
43905;SDS011;29564;46.622;13.818;2024-01-07T01:04:22;7.22;;;3.55;;
43905;SDS011;29564;46.622;13.818;2024-01-07T01:05:24;9.43;;;3.53;;
43905;SDS011;29564;46.622;13.818;2024-01-07T01:06:25;6.13;;;2.88;;
43905;SDS011;29564;46.622;13.818;2024-01-07T01:07:26;9.30;;;3.47;;
43905;SDS011;29564;46.622;13.818;2024-01-07T01:08:27;7.45;;;2.92;;
43905;SDS011;29564;46.622;13.818;2024-01-07T01:09:29;7.10;;;3.30;;
43905;SDS011;29564;46.622;13.818;2024-01-07T01:10:30;4.90;;;2.72;;
43905;SDS011;29564;46.622;13.818;2024-01-07T01:11:31;7.22;;;3.05;;
43905;SDS011;29564;46.622;13.818;2024-01-07T01:12:33;7.53;;;2.67;;
43905;SDS011;29564;46.622;13.818;2024-01-07T01:13:34;6.75;;;3.17;;
43905;SDS011;29564;46.622;13.818;2024-01-07T01:14:35;8.57;;;3.20;;
43905;SDS011;29564;46.622;13.818;2024-01-07T01:15:37;9.35;;;3.33;;
43905;SDS011;29564;46.622;13.818;2024-01-07T01:16:38;12.00;;;3.20;;
43905;SDS011;29564;46.622;13.818;2024-01-07T01:17:39;7.80;;;3.03;;
43905;SDS011;29564;46.622;13.818;2024-01-07T01:18:40;6.38;;;2.50;;
43905;SDS011;29564;46.622;13.818;2024-01-07T01:19:42;6.53;;;3.13;;
43905;SDS011;29564;46.622;13.818;2024-01-07T01:20:43;9.20;;;3.22;;
43905;SDS011;29564;46.622;13.818;2024-01-07T01:21:44;6.97;;;2.97;;
43905;SDS011;29564;46.622;13.818;2024-01-07T01:22:45;7.07;;;2.97;;
43905;SDS011;29564;46.622;13.818;2024-01-07T01:23:47;7.72;;;3.05;;
43905;SDS011;29564;46.622;13.818;2024-01-07T01:24:49;5.00;;;3.28;;
43905;SDS011;29564;46.622;13.818;2024-01-07T01:25:51;6.25;;;2.78;;
43905;SDS011;29564;46.622;13.818;2024-01-07T01:26:53;7.63;;;3.47;;
43905;SDS011;29564;46.622;13.818;2024-01-07T01:27:54;8.40;;;3.15;;
43905;SDS011;29564;46.622;13.818;2024-01-07T01:28:55;5.13;;;2.92;;
43905;SDS011;29564;46.622;13.818;2024-01-07T01:29:56;6.93;;;2.92;;
43905;SDS011;29564;46.622;13.818;2024-01-07T01:30:58;7.40;;;2.63;;
43905;SDS011;29564;46.622;13.818;2024-01-07T01:31:59;8.93;;;3.38;;
43905;SDS011;29564;46.622;13.818;2024-01-07T01:33:00;8.88;;;3.83;;
43905;SDS011;29564;46.622;13.818;2024-01-07T01:34:02;5.82;;;3.20;;
43905;SDS011;29564;46.622;13.818;2024-01-07T01:35:04;6.38;;;3.08;;
43905;SDS011;29564;46.622;13.818;2024-01-07T01:36:06;8.35;;;2.92;;
43905;SDS011;29564;46.622;13.818;2024-01-07T01:37:08;5.20;;;2.70;;
43905;SDS011;29564;46.622;13.818;2024-01-07T01:38:10;7.53;;;3.50;;
43905;SDS011;29564;46.622;13.818;2024-01-07T01:39:12;7.15;;;3.42;;
43905;SDS011;29564;46.622;13.818;2024-01-07T01:40:13;7.10;;;3.55;;
43905;SDS011;29564;46.622;13.818;2024-01-07T01:41:17;8.40;;;3.80;;
43905;SDS011;29564;46.622;13.818;2024-01-07T01:42:18;6.30;;;2.95;;
43905;SDS011;29564;46.622;13.818;2024-01-07T01:43:23;6.97;;;3.13;;
43905;SDS011;29564;46.622;13.818;2024-01-07T01:44:28;6.55;;;3.55;;
43905;SDS011;29564;46.622;13.818;2024-01-07T01:45:29;6.43;;;2.85;;
43905;SDS011;29564;46.622;13.818;2024-01-07T01:46:30;10.38;;;3.78;;
43905;SDS011;29564;46.622;13.818;2024-01-07T01:47:32;8.82;;;3.33;;
43905;SDS011;29564;46.622;13.818;2024-01-07T01:48:35;7.50;;;3.20;;
43905;SDS011;29564;46.622;13.818;2024-01-07T01:49:37;8.10;;;3.78;;
43905;SDS011;29564;46.622;13.818;2024-01-07T01:50:39;18.58;;;3.75;;
43905;SDS011;29564;46.622;13.818;2024-01-07T01:51:41;6.65;;;3.13;;
43905;SDS011;29564;46.622;13.818;2024-01-07T01:52:43;17.02;;;3.45;;
43905;SDS011;29564;46.622;13.818;2024-01-07T01:53:46;13.18;;;4.30;;
43905;SDS011;29564;46.622;13.818;2024-01-07T01:54:49;8.90;;;3.30;;
43905;SDS011;29564;46.622;13.818;2024-01-07T01:55:51;7.78;;;3.47;;
43905;SDS011;29564;46.622;13.818;2024-01-07T01:56:53;11.30;;;3.80;;
43905;SDS011;29564;46.622;13.818;2024-01-07T01:57:54;8.32;;;3.42;;
43905;SDS011;29564;46.622;13.818;2024-01-07T01:59:00;8.55;;;3.25;;
43905;SDS011;29564;46.622;13.818;2024-01-07T02:00:03;7.20;;;3.58;;
43905;SDS011;29564;46.622;13.818;2024-01-07T02:01:05;8.02;;;3.72;;
43905;SDS011;29564;46.622;13.818;2024-01-07T02:02:07;8.48;;;3.70;;
43905;SDS011;29564;46.622;13.818;2024-01-07T02:03:08;10.73;;;3.30;;
43905;SDS011;29564;46.622;13.818;2024-01-07T02:04:10;10.00;;;3.50;;
43905;SDS011;29564;46.622;13.818;2024-01-07T02:05:11;7.25;;;3.72;;
43905;SDS011;29564;46.622;13.818;2024-01-07T02:06:14;8.55;;;3.97;;
43905;SDS011;29564;46.622;13.818;2024-01-07T02:07:16;9.15;;;3.83;;
43905;SDS011;29564;46.622;13.818;2024-01-07T02:08:18;7.90;;;3.33;;
43905;SDS011;29564;46.622;13.818;2024-01-07T02:09:20;10.40;;;4.32;;
43905;SDS011;29564;46.622;13.818;2024-01-07T02:10:21;9.38;;;3.60;;
43905;SDS011;29564;46.622;13.818;2024-01-07T02:11:23;11.15;;;3.58;;
43905;SDS011;29564;46.622;13.818;2024-01-07T02:12:24;7.15;;;3.72;;
43905;SDS011;29564;46.622;13.818;2024-01-07T02:13:26;10.05;;;3.78;;
43905;SDS011;29564;46.622;13.818;2024-01-07T02:14:27;8.55;;;4.00;;
43905;SDS011;29564;46.622;13.818;2024-01-07T02:15:29;8.88;;;3.63;;
43905;SDS011;29564;46.622;13.818;2024-01-07T02:16:31;10.20;;;4.13;;
43905;SDS011;29564;46.622;13.818;2024-01-07T02:17:32;8.55;;;3.50;;
43905;SDS011;29564;46.622;13.818;2024-01-07T02:18:33;10.45;;;4.13;;
43905;SDS011;29564;46.622;13.818;2024-01-07T02:19:35;9.23;;;3.90;;
43905;SDS011;29564;46.622;13.818;2024-01-07T02:20:36;8.65;;;3.83;;
43905;SDS011;29564;46.622;13.818;2024-01-07T02:21:37;11.20;;;4.35;;
43905;SDS011;29564;46.622;13.818;2024-01-07T02:22:39;9.15;;;3.42;;
43905;SDS011;29564;46.622;13.818;2024-01-07T02:23:40;18.10;;;4.38;;
43905;SDS011;29564;46.622;13.818;2024-01-07T02:24:41;16.17;;;4.40;;
43905;SDS011;29564;46.622;13.818;2024-01-07T02:25:43;12.20;;;4.28;;
43905;SDS011;29564;46.622;13.818;2024-01-07T02:26:44;16.67;;;3.97;;
43905;SDS011;29564;46.622;13.818;2024-01-07T02:27:45;7.68;;;3.58;;
43905;SDS011;29564;46.622;13.818;2024-01-07T02:28:46;8.15;;;3.55;;
43905;SDS011;29564;46.622;13.818;2024-01-07T02:29:48;9.27;;;3.67;;
43905;SDS011;29564;46.622;13.818;2024-01-07T02:30:49;9.52;;;3.92;;
43905;SDS011;29564;46.622;13.818;2024-01-07T02:31:50;9.77;;;4.53;;
43905;SDS011;29564;46.622;13.818;2024-01-07T02:32:52;11.40;;;4.00;;
43905;SDS011;29564;46.622;13.818;2024-01-07T02:33:53;8.77;;;3.15;;
43905;SDS011;29564;46.622;13.818;2024-01-07T02:34:54;8.60;;;4.45;;
43905;SDS011;29564;46.622;13.818;2024-01-07T02:35:55;10.88;;;3.65;;
43905;SDS011;29564;46.622;13.818;2024-01-07T02:36:57;6.45;;;3.70;;
43905;SDS011;29564;46.622;13.818;2024-01-07T02:37:58;10.77;;;3.97;;
43905;SDS011;29564;46.622;13.818;2024-01-07T02:39:00;7.53;;;3.90;;
43905;SDS011;29564;46.622;13.818;2024-01-07T02:40:01;10.45;;;3.55;;
43905;SDS011;29564;46.622;13.818;2024-01-07T02:41:02;13.07;;;4.13;;
43905;SDS011;29564;46.622;13.818;2024-01-07T02:42:04;10.30;;;3.53;;
43905;SDS011;29564;46.622;13.818;2024-01-07T02:43:06;9.57;;;3.58;;
43905;SDS011;29564;46.622;13.818;2024-01-07T02:44:07;6.80;;;3.75;;
43905;SDS011;29564;46.622;13.818;2024-01-07T02:45:08;8.32;;;4.00;;
43905;SDS011;29564;46.622;13.818;2024-01-07T02:46:10;8.65;;;3.65;;
43905;SDS011;29564;46.622;13.818;2024-01-07T02:47:11;11.45;;;5.03;;
43905;SDS011;29564;46.622;13.818;2024-01-07T02:48:12;10.27;;;3.45;;
43905;SDS011;29564;46.622;13.818;2024-01-07T02:49:14;9.25;;;4.32;;
43905;SDS011;29564;46.622;13.818;2024-01-07T02:50:15;7.97;;;4.00;;
43905;SDS011;29564;46.622;13.818;2024-01-07T02:51:16;6.47;;;3.75;;
43905;SDS011;29564;46.622;13.818;2024-01-07T02:52:18;7.43;;;3.25;;
43905;SDS011;29564;46.622;13.818;2024-01-07T02:53:19;7.00;;;4.03;;
43905;SDS011;29564;46.622;13.818;2024-01-07T02:54:20;8.25;;;3.53;;
43905;SDS011;29564;46.622;13.818;2024-01-07T02:55:21;8.65;;;3.95;;
43905;SDS011;29564;46.622;13.818;2024-01-07T02:56:23;9.32;;;3.55;;
43905;SDS011;29564;46.622;13.818;2024-01-07T02:57:24;7.28;;;3.55;;
43905;SDS011;29564;46.622;13.818;2024-01-07T02:58:25;7.57;;;3.13;;
43905;SDS011;29564;46.622;13.818;2024-01-07T02:59:27;7.20;;;3.25;;
43905;SDS011;29564;46.622;13.818;2024-01-07T03:00:28;9.00;;;3.65;;
43905;SDS011;29564;46.622;13.818;2024-01-07T03:01:30;9.63;;;3.72;;
43905;SDS011;29564;46.622;13.818;2024-01-07T03:02:31;6.53;;;3.67;;
43905;SDS011;29564;46.622;13.818;2024-01-07T03:03:32;6.97;;;3.42;;
43905;SDS011;29564;46.622;13.818;2024-01-07T03:04:34;6.25;;;3.05;;
43905;SDS011;29564;46.622;13.818;2024-01-07T03:05:35;10.43;;;3.75;;
43905;SDS011;29564;46.622;13.818;2024-01-07T03:06:36;8.70;;;3.28;;
43905;SDS011;29564;46.622;13.818;2024-01-07T03:07:38;5.50;;;3.15;;
43905;SDS011;29564;46.622;13.818;2024-01-07T03:08:41;12.13;;;3.50;;
43905;SDS011;29564;46.622;13.818;2024-01-07T03:09:43;6.60;;;3.55;;
43905;SDS011;29564;46.622;13.818;2024-01-07T03:10:44;6.57;;;3.15;;
43905;SDS011;29564;46.622;13.818;2024-01-07T03:11:46;7.63;;;3.03;;
43905;SDS011;29564;46.622;13.818;2024-01-07T03:12:47;9.57;;;3.40;;
43905;SDS011;29564;46.622;13.818;2024-01-07T03:13:48;9.77;;;3.78;;
43905;SDS011;29564;46.622;13.818;2024-01-07T03:14:49;7.40;;;3.15;;
43905;SDS011;29564;46.622;13.818;2024-01-07T03:15:51;9.32;;;4.15;;
43905;SDS011;29564;46.622;13.818;2024-01-07T03:16:52;16.92;;;3.53;;
43905;SDS011;29564;46.622;13.818;2024-01-07T03:17:53;12.50;;;3.88;;
43905;SDS011;29564;46.622;13.818;2024-01-07T03:18:55;8.98;;;2.97;;
43905;SDS011;29564;46.622;13.818;2024-01-07T03:19:56;8.65;;;3.92;;
43905;SDS011;29564;46.622;13.818;2024-01-07T03:20:57;9.63;;;3.15;;
43905;SDS011;29564;46.622;13.818;2024-01-07T03:21:59;6.28;;;3.55;;
43905;SDS011;29564;46.622;13.818;2024-01-07T03:23:00;8.27;;;3.50;;
43905;SDS011;29564;46.622;13.818;2024-01-07T03:24:02;10.02;;;3.25;;
43905;SDS011;29564;46.622;13.818;2024-01-07T03:25:03;9.98;;;4.00;;
43905;SDS011;29564;46.622;13.818;2024-01-07T03:26:05;7.07;;;3.47;;
43905;SDS011;29564;46.622;13.818;2024-01-07T03:27:06;7.15;;;3.33;;
43905;SDS011;29564;46.622;13.818;2024-01-07T03:28:08;8.25;;;3.10;;
43905;SDS011;29564;46.622;13.818;2024-01-07T03:29:09;7.35;;;3.25;;
43905;SDS011;29564;46.622;13.818;2024-01-07T03:30:10;6.53;;;3.05;;
43905;SDS011;29564;46.622;13.818;2024-01-07T03:31:12;6.80;;;3.13;;
43905;SDS011;29564;46.622;13.818;2024-01-07T03:32:19;5.50;;;3.45;;
43905;SDS011;29564;46.622;13.818;2024-01-07T03:33:20;6.03;;;3.17;;
43905;SDS011;29564;46.622;13.818;2024-01-07T03:34:21;6.93;;;3.05;;
43905;SDS011;29564;46.622;13.818;2024-01-07T03:35:22;7.45;;;3.85;;
43905;SDS011;29564;46.622;13.818;2024-01-07T03:36:24;8.73;;;3.83;;
43905;SDS011;29564;46.622;13.818;2024-01-07T03:37:26;6.13;;;3.05;;
43905;SDS011;29564;46.622;13.818;2024-01-07T03:38:27;7.03;;;3.53;;
43905;SDS011;29564;46.622;13.818;2024-01-07T03:39:28;6.80;;;2.85;;
43905;SDS011;29564;46.622;13.818;2024-01-07T03:40:32;5.40;;;2.78;;
43905;SDS011;29564;46.622;13.818;2024-01-07T03:41:33;7.20;;;2.95;;
43905;SDS011;29564;46.622;13.818;2024-01-07T03:42:35;7.88;;;3.25;;
43905;SDS011;29564;46.622;13.818;2024-01-07T03:43:36;8.27;;;2.95;;
43905;SDS011;29564;46.622;13.818;2024-01-07T03:44:37;8.57;;;3.38;;
43905;SDS011;29564;46.622;13.818;2024-01-07T03:45:39;6.38;;;2.72;;
43905;SDS011;29564;46.622;13.818;2024-01-07T03:46:40;7.35;;;3.38;;
43905;SDS011;29564;46.622;13.818;2024-01-07T03:47:41;7.78;;;3.92;;
43905;SDS011;29564;46.622;13.818;2024-01-07T03:48:44;6.75;;;3.33;;
43905;SDS011;29564;46.622;13.818;2024-01-07T03:49:45;7.38;;;3.38;;
43905;SDS011;29564;46.622;13.818;2024-01-07T03:50:47;6.63;;;3.58;;
43905;SDS011;29564;46.622;13.818;2024-01-07T03:51:48;8.98;;;3.63;;
43905;SDS011;29564;46.622;13.818;2024-01-07T03:52:49;5.13;;;2.85;;
43905;SDS011;29564;46.622;13.818;2024-01-07T03:53:51;6.07;;;3.92;;
43905;SDS011;29564;46.622;13.818;2024-01-07T03:54:52;9.35;;;3.70;;
43905;SDS011;29564;46.622;13.818;2024-01-07T03:55:53;8.07;;;3.58;;
43905;SDS011;29564;46.622;13.818;2024-01-07T03:56:55;7.07;;;3.83;;
43905;SDS011;29564;46.622;13.818;2024-01-07T03:57:56;9.50;;;4.03;;
43905;SDS011;29564;46.622;13.818;2024-01-07T03:58:57;6.03;;;3.08;;
43905;SDS011;29564;46.622;13.818;2024-01-07T03:59:58;6.43;;;3.00;;
43905;SDS011;29564;46.622;13.818;2024-01-07T04:01:00;5.85;;;3.17;;
43905;SDS011;29564;46.622;13.818;2024-01-07T04:02:01;8.50;;;3.28;;
43905;SDS011;29564;46.622;13.818;2024-01-07T04:03:03;7.40;;;3.10;;
43905;SDS011;29564;46.622;13.818;2024-01-07T04:04:04;4.78;;;3.33;;
43905;SDS011;29564;46.622;13.818;2024-01-07T04:05:06;6.85;;;3.42;;
43905;SDS011;29564;46.622;13.818;2024-01-07T04:06:07;7.60;;;3.78;;
43905;SDS011;29564;46.622;13.818;2024-01-07T04:07:09;6.78;;;2.95;;
43905;SDS011;29564;46.622;13.818;2024-01-07T04:08:10;6.28;;;2.95;;
43905;SDS011;29564;46.622;13.818;2024-01-07T04:09:12;10.43;;;3.63;;
43905;SDS011;29564;46.622;13.818;2024-01-07T04:10:15;5.68;;;3.00;;
43905;SDS011;29564;46.622;13.818;2024-01-07T04:11:17;7.95;;;3.47;;
43905;SDS011;29564;46.622;13.818;2024-01-07T04:12:18;7.80;;;3.35;;
43905;SDS011;29564;46.622;13.818;2024-01-07T04:13:19;7.13;;;3.03;;
43905;SDS011;29564;46.622;13.818;2024-01-07T04:14:21;6.30;;;2.97;;
43905;SDS011;29564;46.622;13.818;2024-01-07T04:15:22;7.18;;;2.97;;
43905;SDS011;29564;46.622;13.818;2024-01-07T04:16:24;8.05;;;3.00;;
43905;SDS011;29564;46.622;13.818;2024-01-07T04:17:26;7.00;;;3.30;;
43905;SDS011;29564;46.622;13.818;2024-01-07T04:18:27;6.55;;;3.17;;
43905;SDS011;29564;46.622;13.818;2024-01-07T04:19:28;6.60;;;3.38;;
43905;SDS011;29564;46.622;13.818;2024-01-07T04:20:30;7.35;;;3.83;;
43905;SDS011;29564;46.622;13.818;2024-01-07T04:21:31;8.75;;;3.45;;
43905;SDS011;29564;46.622;13.818;2024-01-07T04:22:33;10.43;;;4.03;;
43905;SDS011;29564;46.622;13.818;2024-01-07T04:23:34;6.63;;;3.42;;
43905;SDS011;29564;46.622;13.818;2024-01-07T04:24:35;6.55;;;3.22;;
43905;SDS011;29564;46.622;13.818;2024-01-07T04:25:37;7.07;;;3.58;;
43905;SDS011;29564;46.622;13.818;2024-01-07T04:26:38;7.68;;;3.25;;
43905;SDS011;29564;46.622;13.818;2024-01-07T04:27:40;5.47;;;2.65;;
43905;SDS011;29564;46.622;13.818;2024-01-07T04:28:41;8.40;;;3.10;;
43905;SDS011;29564;46.622;13.818;2024-01-07T04:29:43;8.23;;;3.33;;
43905;SDS011;29564;46.622;13.818;2024-01-07T04:30:44;6.45;;;3.20;;
43905;SDS011;29564;46.622;13.818;2024-01-07T04:31:46;8.60;;;3.92;;
43905;SDS011;29564;46.622;13.818;2024-01-07T04:32:47;10.43;;;3.35;;
43905;SDS011;29564;46.622;13.818;2024-01-07T04:33:48;9.95;;;4.10;;
43905;SDS011;29564;46.622;13.818;2024-01-07T04:34:49;8.63;;;3.30;;
43905;SDS011;29564;46.622;13.818;2024-01-07T04:35:51;8.63;;;3.50;;
43905;SDS011;29564;46.622;13.818;2024-01-07T04:36:52;9.95;;;3.78;;
43905;SDS011;29564;46.622;13.818;2024-01-07T04:37:53;7.82;;;4.20;;
43905;SDS011;29564;46.622;13.818;2024-01-07T04:38:54;7.00;;;3.28;;
43905;SDS011;29564;46.622;13.818;2024-01-07T04:39:56;5.97;;;3.25;;
43905;SDS011;29564;46.622;13.818;2024-01-07T04:40:57;6.18;;;3.40;;
43905;SDS011;29564;46.622;13.818;2024-01-07T04:41:58;7.53;;;3.70;;
43905;SDS011;29564;46.622;13.818;2024-01-07T04:43:00;8.32;;;2.88;;
43905;SDS011;29564;46.622;13.818;2024-01-07T04:44:01;5.50;;;2.97;;
43905;SDS011;29564;46.622;13.818;2024-01-07T04:45:02;7.35;;;3.25;;
43905;SDS011;29564;46.622;13.818;2024-01-07T04:46:04;10.98;;;3.55;;
43905;SDS011;29564;46.622;13.818;2024-01-07T04:47:22;7.35;;;2.92;;
43905;SDS011;29564;46.622;13.818;2024-01-07T04:48:30;6.47;;;2.80;;
43905;SDS011;29564;46.622;13.818;2024-01-07T04:49:32;8.30;;;3.65;;
43905;SDS011;29564;46.622;13.818;2024-01-07T04:50:33;6.53;;;2.85;;
43905;SDS011;29564;46.622;13.818;2024-01-07T04:51:34;6.93;;;3.40;;
43905;SDS011;29564;46.622;13.818;2024-01-07T04:52:37;5.75;;;2.42;;
43905;SDS011;29564;46.622;13.818;2024-01-07T04:53:38;4.72;;;2.60;;
43905;SDS011;29564;46.622;13.818;2024-01-07T04:54:39;5.78;;;3.00;;
43905;SDS011;29564;46.622;13.818;2024-01-07T04:55:41;5.70;;;2.67;;
43905;SDS011;29564;46.622;13.818;2024-01-07T04:56:42;7.38;;;2.78;;
43905;SDS011;29564;46.622;13.818;2024-01-07T04:57:43;6.65;;;3.83;;
43905;SDS011;29564;46.622;13.818;2024-01-07T04:58:44;5.15;;;3.00;;
43905;SDS011;29564;46.622;13.818;2024-01-07T04:59:46;9.30;;;3.40;;
43905;SDS011;29564;46.622;13.818;2024-01-07T05:00:48;5.57;;;3.15;;
43905;SDS011;29564;46.622;13.818;2024-01-07T05:01:49;5.97;;;2.63;;
43905;SDS011;29564;46.622;13.818;2024-01-07T05:02:50;6.05;;;2.55;;
43905;SDS011;29564;46.622;13.818;2024-01-07T05:03:52;7.00;;;3.15;;
43905;SDS011;29564;46.622;13.818;2024-01-07T05:04:53;4.75;;;2.60;;
43905;SDS011;29564;46.622;13.818;2024-01-07T05:05:54;5.85;;;3.28;;
43905;SDS011;29564;46.622;13.818;2024-01-07T05:06:56;6.30;;;3.58;;
43905;SDS011;29564;46.622;13.818;2024-01-07T05:07:57;5.40;;;2.50;;
43905;SDS011;29564;46.622;13.818;2024-01-07T05:09:01;6.78;;;3.13;;
43905;SDS011;29564;46.622;13.818;2024-01-07T05:10:03;6.97;;;3.10;;
43905;SDS011;29564;46.622;13.818;2024-01-07T05:11:04;7.32;;;3.05;;
43905;SDS011;29564;46.622;13.818;2024-01-07T05:12:06;6.50;;;2.90;;
43905;SDS011;29564;46.622;13.818;2024-01-07T05:13:07;6.85;;;3.33;;
43905;SDS011;29564;46.622;13.818;2024-01-07T05:14:08;8.35;;;3.20;;
43905;SDS011;29564;46.622;13.818;2024-01-07T05:15:11;8.13;;;3.42;;
43905;SDS011;29564;46.622;13.818;2024-01-07T05:16:19;9.05;;;3.50;;
43905;SDS011;29564;46.622;13.818;2024-01-07T05:17:20;6.75;;;3.38;;
43905;SDS011;29564;46.622;13.818;2024-01-07T05:18:22;8.93;;;4.68;;
43905;SDS011;29564;46.622;13.818;2024-01-07T05:19:24;8.43;;;3.22;;
43905;SDS011;29564;46.622;13.818;2024-01-07T05:20:25;5.95;;;3.45;;
43905;SDS011;29564;46.622;13.818;2024-01-07T05:21:26;8.20;;;2.90;;
43905;SDS011;29564;46.622;13.818;2024-01-07T05:22:28;6.45;;;3.33;;
43905;SDS011;29564;46.622;13.818;2024-01-07T05:23:29;4.63;;;2.75;;
43905;SDS011;29564;46.622;13.818;2024-01-07T05:24:30;6.75;;;3.08;;
43905;SDS011;29564;46.622;13.818;2024-01-07T05:25:31;7.38;;;3.38;;
43905;SDS011;29564;46.622;13.818;2024-01-07T05:26:42;7.95;;;3.13;;
43905;SDS011;29564;46.622;13.818;2024-01-07T05:27:45;6.72;;;2.83;;
43905;SDS011;29564;46.622;13.818;2024-01-07T05:28:46;6.88;;;2.83;;
43905;SDS011;29564;46.622;13.818;2024-01-07T05:29:47;7.10;;;3.15;;
43905;SDS011;29564;46.622;13.818;2024-01-07T05:30:50;5.57;;;2.95;;
43905;SDS011;29564;46.622;13.818;2024-01-07T05:31:51;6.60;;;2.90;;
43905;SDS011;29564;46.622;13.818;2024-01-07T05:32:52;6.18;;;3.20;;
43905;SDS011;29564;46.622;13.818;2024-01-07T05:33:53;6.28;;;2.75;;
43905;SDS011;29564;46.622;13.818;2024-01-07T05:34:55;7.97;;;3.58;;
43905;SDS011;29564;46.622;13.818;2024-01-07T05:35:56;8.20;;;2.83;;
43905;SDS011;29564;46.622;13.818;2024-01-07T05:36:58;6.57;;;2.75;;
43905;SDS011;29564;46.622;13.818;2024-01-07T05:37:59;8.00;;;3.35;;
43905;SDS011;29564;46.622;13.818;2024-01-07T05:39:00;9.18;;;3.10;;
43905;SDS011;29564;46.622;13.818;2024-01-07T05:40:02;6.88;;;3.15;;
43905;SDS011;29564;46.622;13.818;2024-01-07T05:41:04;4.97;;;3.15;;
43905;SDS011;29564;46.622;13.818;2024-01-07T05:42:05;5.35;;;2.30;;
43905;SDS011;29564;46.622;13.818;2024-01-07T05:43:07;4.10;;;2.25;;
43905;SDS011;29564;46.622;13.818;2024-01-07T05:44:08;3.58;;;1.90;;
43905;SDS011;29564;46.622;13.818;2024-01-07T05:45:10;3.35;;;1.63;;
43905;SDS011;29564;46.622;13.818;2024-01-07T05:46:11;4.00;;;1.70;;
43905;SDS011;29564;46.622;13.818;2024-01-07T05:47:13;2.75;;;1.30;;
43905;SDS011;29564;46.622;13.818;2024-01-07T05:48:14;1.73;;;1.05;;
43905;SDS011;29564;46.622;13.818;2024-01-07T05:49:15;1.88;;;1.30;;
43905;SDS011;29564;46.622;13.818;2024-01-07T05:50:17;2.33;;;1.40;;
43905;SDS011;29564;46.622;13.818;2024-01-07T05:51:19;2.42;;;1.08;;
43905;SDS011;29564;46.622;13.818;2024-01-07T05:52:21;2.25;;;1.02;;
43905;SDS011;29564;46.622;13.818;2024-01-07T05:53:22;1.98;;;1.17;;
43905;SDS011;29564;46.622;13.818;2024-01-07T05:54:23;2.08;;;1.25;;
43905;SDS011;29564;46.622;13.818;2024-01-07T05:55:24;2.17;;;1.42;;
43905;SDS011;29564;46.622;13.818;2024-01-07T05:56:26;1.55;;;0.85;;
43905;SDS011;29564;46.622;13.818;2024-01-07T05:57:27;2.08;;;1.02;;
43905;SDS011;29564;46.622;13.818;2024-01-07T05:58:29;2.67;;;1.38;;
43905;SDS011;29564;46.622;13.818;2024-01-07T05:59:30;3.47;;;1.50;;
43905;SDS011;29564;46.622;13.818;2024-01-07T06:00:32;2.05;;;1.08;;
43905;SDS011;29564;46.622;13.818;2024-01-07T06:01:33;1.75;;;1.23;;
43905;SDS011;29564;46.622;13.818;2024-01-07T06:02:35;1.92;;;1.27;;
43905;SDS011;29564;46.622;13.818;2024-01-07T06:03:37;1.67;;;1.13;;
43905;SDS011;29564;46.622;13.818;2024-01-07T06:04:38;2.22;;;1.13;;
43905;SDS011;29564;46.622;13.818;2024-01-07T06:05:39;2.13;;;1.10;;